createdAt,value
2018-07-06T00:01:58.236Z,9.67
2018-07-06T00:04:44.643Z,8.50
2018-07-06T00:07:31.045Z,7.80
2018-07-06T00:10:17.259Z,8.00
2018-07-06T00:13:03.622Z,7.23
2018-07-06T00:15:50.111Z,7.37
2018-07-06T00:18:36.493Z,7.97
2018-07-06T00:21:22.672Z,7.10
2018-07-06T00:24:09.062Z,6.67
2018-07-06T00:26:55.549Z,8.87
2018-07-06T00:29:41.865Z,8.03
2018-07-06T00:32:28.194Z,8.37
2018-07-06T00:35:14.538Z,7.33
2018-07-06T00:38:00.856Z,7.37
2018-07-06T00:40:47.273Z,7.37
2018-07-06T00:43:33.573Z,6.93
2018-07-06T00:46:19.897Z,7.17
2018-07-06T00:49:00.396Z,6.87
2018-07-06T00:51:46.829Z,7.43
2018-07-06T00:54:33.052Z,8.57
2018-07-06T00:57:19.523Z,7.13
2018-07-06T01:00:05.740Z,8.67
2018-07-06T01:02:52.239Z,7.20
2018-07-06T01:05:38.627Z,7.53
2018-07-06T01:08:26.708Z,9.80
2018-07-06T01:11:07.181Z,6.90
2018-07-06T01:13:47.545Z,8.17
2018-07-06T01:16:33.959Z,7.97
2018-07-06T01:19:20.269Z,8.23
2018-07-06T01:22:06.745Z,8.57
2018-07-06T01:24:46.986Z,8.83
2018-07-06T01:27:27.356Z,8.13
2018-07-06T01:30:13.971Z,8.57
2018-07-06T01:33:00.421Z,9.17
2018-07-06T01:35:46.720Z,11.13
2018-07-06T01:38:32.983Z,8.60
2018-07-06T01:41:19.353Z,10.33
2018-07-06T01:43:59.642Z,9.37
2018-07-06T01:46:46.146Z,10.40
2018-07-06T01:49:32.402Z,9.33
2018-07-06T01:52:12.880Z,10.17
2018-07-06T01:54:59.261Z,9.90
2018-07-06T01:57:39.466Z,10.60
2018-07-06T02:00:26.123Z,9.73
2018-07-06T02:03:12.409Z,11.43
2018-07-06T02:05:58.628Z,15.43
2018-07-06T02:08:45.064Z,11.70
2018-07-06T02:11:31.308Z,11.60
2018-07-06T02:14:17.593Z,13.80
2018-07-06T02:17:03.796Z,12.33
2018-07-06T02:19:50.165Z,13.50
2018-07-06T02:22:36.445Z,14.87
2018-07-06T02:25:22.700Z,21.27
2018-07-06T02:28:09.041Z,15.43
2018-07-06T02:30:55.552Z,18.70
2018-07-06T02:33:41.809Z,19.37
2018-07-06T02:36:22.127Z,17.37
2018-07-06T02:39:08.539Z,16.83
2018-07-06T02:41:54.912Z,20.05
2018-07-06T02:44:41.509Z,22.55
2018-07-06T02:47:28.014Z,21.30
2018-07-06T02:50:14.395Z,21.23
2018-07-06T02:53:00.835Z,23.57
2018-07-06T02:55:47.042Z,21.97
2018-07-06T02:58:33.406Z,23.52
2018-07-06T03:01:19.766Z,23.80
2018-07-06T03:04:06.011Z,22.77
2018-07-06T03:06:52.253Z,24.30
2018-07-06T03:09:38.740Z,23.63
2018-07-06T03:12:26.203Z,21.83
2018-07-06T03:15:12.549Z,20.27
2018-07-06T03:17:59.019Z,18.60
2018-07-06T03:20:45.384Z,20.20
2018-07-06T03:23:31.772Z,17.83
2018-07-06T03:26:18.151Z,20.72
2018-07-06T03:29:04.332Z,20.77
2018-07-06T03:31:50.677Z,19.47
2018-07-06T03:34:37.032Z,22.27
2018-07-06T03:37:23.340Z,19.77
2018-07-06T03:40:09.797Z,20.23
2018-07-06T03:42:50.029Z,19.50
2018-07-06T03:45:36.200Z,23.67
2018-07-06T03:48:25.744Z,24.83
2018-07-06T03:51:12.292Z,25.43
2018-07-06T03:53:58.472Z,27.00
2018-07-06T03:56:44.648Z,27.57
2018-07-06T03:59:31.032Z,24.87
2018-07-06T04:02:17.406Z,25.73
2018-07-06T04:04:57.859Z,26.03
2018-07-06T04:07:44.285Z,24.97
2018-07-06T04:10:30.656Z,28.67
2018-07-06T04:13:16.907Z,28.53
2018-07-06T04:16:03.368Z,25.80
2018-07-06T04:18:49.776Z,27.93
2018-07-06T04:21:36.183Z,29.12
2018-07-06T04:24:22.425Z,32.73
2018-07-06T04:27:08.708Z,28.67
2018-07-06T04:29:54.988Z,29.33
2018-07-06T04:32:41.407Z,32.78
2018-07-06T04:35:27.708Z,27.63
2018-07-06T04:38:14.184Z,25.13
2018-07-06T04:41:00.723Z,24.90
2018-07-06T04:43:46.863Z,24.60
2018-07-06T04:46:27.167Z,23.05
2018-07-06T04:49:13.456Z,22.53
2018-07-06T04:51:59.752Z,19.00
2018-07-06T04:54:46.048Z,17.87
2018-07-06T04:57:32.546Z,17.70
2018-07-06T05:00:18.914Z,16.17
2018-07-06T05:02:59.284Z,17.30
2018-07-06T05:05:39.783Z,15.13
2018-07-06T05:08:26.212Z,13.77
2018-07-06T05:11:12.468Z,11.03
2018-07-06T05:13:58.889Z,11.33
2018-07-06T05:16:45.315Z,12.00
2018-07-06T05:19:31.528Z,10.77
2018-07-06T05:22:17.957Z,10.93
2018-07-06T05:25:04.287Z,13.57
2018-07-06T05:27:50.561Z,9.77
2018-07-06T05:30:37.660Z,10.87
2018-07-06T05:33:24.173Z,10.73
2018-07-06T05:36:10.556Z,13.23
2018-07-06T05:38:50.978Z,11.93
2018-07-06T05:41:37.399Z,20.27
2018-07-06T05:44:23.722Z,14.80
2018-07-06T05:47:03.955Z,16.30
2018-07-06T05:49:50.528Z,16.80
2018-07-06T05:52:36.994Z,15.48
2018-07-06T05:55:23.368Z,18.77
2018-07-06T05:58:09.726Z,15.13
2018-07-06T06:00:56.364Z,15.43
2018-07-06T06:03:42.715Z,15.83
2018-07-06T06:06:29.140Z,14.77
2018-07-06T06:08:56.923Z,16.60
2018-07-06T06:11:26.288Z,14.50
2018-07-06T06:13:55.643Z,16.03
2018-07-06T06:16:24.784Z,14.05
2018-07-06T06:18:54.176Z,14.40
2018-07-06T06:21:23.255Z,13.60
2018-07-06T06:23:52.593Z,15.77
2018-07-06T06:28:58.731Z,14.67
2018-07-06T06:31:28.958Z,12.67
2018-07-06T06:34:00.568Z,14.30
2018-07-06T06:36:30.448Z,12.77
2018-07-06T06:38:59.788Z,14.33
2018-07-06T06:41:29.156Z,15.67
2018-07-06T06:43:58.483Z,16.07
2018-07-06T06:46:27.829Z,13.00
2018-07-06T06:48:57.180Z,16.25
2018-07-06T06:51:26.508Z,13.33
2018-07-06T06:53:55.595Z,12.60
2018-07-06T06:56:24.906Z,14.93
2018-07-06T06:58:54.103Z,13.00
2018-07-06T07:01:23.417Z,15.50
2018-07-06T07:03:52.795Z,16.03
2018-07-06T07:06:22.120Z,13.70
2018-07-06T07:08:51.456Z,13.20
2018-07-06T07:11:20.772Z,14.40
2018-07-06T07:13:50.246Z,13.93
2018-07-06T07:16:19.507Z,13.90
2018-07-06T07:18:48.836Z,17.40
2018-07-06T07:21:18.195Z,14.37
2018-07-06T07:23:47.618Z,14.13
2018-07-06T07:26:16.868Z,14.47
2018-07-06T07:28:46.192Z,15.73
2018-07-06T07:31:15.516Z,15.43
2018-07-06T07:33:44.594Z,14.97
2018-07-06T07:36:13.964Z,13.48
2018-07-06T07:38:43.326Z,15.73
2018-07-06T07:41:12.636Z,13.93
2018-07-06T07:43:42.004Z,14.37
2018-07-06T07:46:11.101Z,16.13
2018-07-06T07:48:40.427Z,14.57
2018-07-06T07:52:14.605Z,14.93
2018-07-06T07:54:48.455Z,17.50
2018-07-06T07:57:17.805Z,18.03
2018-07-06T07:59:47.648Z,15.47
2018-07-06T08:02:16.777Z,15.80
2018-07-06T08:04:46.564Z,15.53
2018-07-06T08:07:15.908Z,17.50
2018-07-06T08:09:45.368Z,18.20
2018-07-06T08:12:14.727Z,18.23
2018-07-06T08:14:44.076Z,18.00
2018-07-06T08:17:13.408Z,17.83
2018-07-06T08:19:42.752Z,20.40
2018-07-06T08:22:12.081Z,14.47
2018-07-06T08:24:41.438Z,16.80
2018-07-06T08:27:10.777Z,19.27
2018-07-06T08:29:39.883Z,13.73
2018-07-06T08:32:09.233Z,13.43
2018-07-06T08:34:55.468Z,15.30
2018-07-06T08:37:39.146Z,13.63
2018-07-06T08:40:08.516Z,12.07
2018-07-06T08:42:39.142Z,13.47
2018-07-06T08:45:08.880Z,13.57
2018-07-06T08:47:38.296Z,13.50
2018-07-06T08:50:09.199Z,16.77
2018-07-06T08:52:39.517Z,14.47
2018-07-06T08:55:08.971Z,17.03
2018-07-06T08:57:39.244Z,15.40
2018-07-06T09:00:10.244Z,13.80
2018-07-06T09:02:39.561Z,15.97
2018-07-06T09:05:09.312Z,15.47
2018-07-06T09:07:38.688Z,13.47
2018-07-06T09:10:09.079Z,15.43
2018-07-06T09:12:38.776Z,16.03
2018-07-06T09:15:08.649Z,13.80
2018-07-06T09:17:38.031Z,17.37
2018-07-06T09:20:08.783Z,13.53
2018-07-06T09:22:37.916Z,16.20
2018-07-06T09:25:07.928Z,15.57
2018-07-06T09:27:37.255Z,14.03
2018-07-06T09:30:06.575Z,15.87
2018-07-06T09:32:35.991Z,16.57
2018-07-06T09:35:05.400Z,13.83
2018-07-06T09:37:34.745Z,13.73
2018-07-06T09:40:04.080Z,19.83
2018-07-06T09:42:33.167Z,20.00
2018-07-06T09:45:02.269Z,15.17
2018-07-06T09:47:31.364Z,14.03
2018-07-06T09:50:00.447Z,16.50
2018-07-06T09:52:29.791Z,12.63
2018-07-06T09:54:59.155Z,13.07
2018-07-06T09:57:28.273Z,17.70
2018-07-06T09:59:57.646Z,15.13
2018-07-06T10:02:27.003Z,14.25
2018-07-06T10:04:56.364Z,15.20
2018-07-06T10:07:25.484Z,17.33
2018-07-06T10:09:54.904Z,16.50
2018-07-06T10:12:23.974Z,17.30
2018-07-06T10:14:53.336Z,16.20
2018-07-06T10:17:22.696Z,16.13
2018-07-06T10:19:52.128Z,19.77
2018-07-06T10:22:21.477Z,15.95
2018-07-06T10:24:50.832Z,15.83
2018-07-06T10:27:20.287Z,16.27
2018-07-06T10:30:01.371Z,16.97
2018-07-06T10:32:31.076Z,17.10
2018-07-06T10:35:00.978Z,13.57
2018-07-06T10:37:30.795Z,17.37
2018-07-06T10:40:00.204Z,13.90
2018-07-06T10:42:29.278Z,15.50
2018-07-06T10:44:58.384Z,13.70
2018-07-06T10:47:27.744Z,13.27
2018-07-06T10:49:57.089Z,11.03
2018-07-06T10:52:26.472Z,13.58
2018-07-06T10:54:55.799Z,16.77
2018-07-06T10:57:25.115Z,21.80
2018-07-06T10:59:54.460Z,18.80
2018-07-06T11:02:23.792Z,20.93
2018-07-06T11:04:53.183Z,17.70
2018-07-06T11:07:22.466Z,17.03
2018-07-06T11:09:51.780Z,14.53
2018-07-06T11:12:20.873Z,13.17
2018-07-06T11:14:49.963Z,13.67
2018-07-06T11:17:19.043Z,12.50
2018-07-06T11:19:48.368Z,9.53
2018-07-06T11:22:17.696Z,7.87
2018-07-06T11:24:47.020Z,8.03
2018-07-06T11:27:16.348Z,7.10
2018-07-06T11:29:45.685Z,4.83
2018-07-06T11:32:15.076Z,5.45
2018-07-06T11:34:44.355Z,6.47
2018-07-06T11:37:13.444Z,10.73
2018-07-06T11:39:42.772Z,4.23
2018-07-06T11:42:12.097Z,7.90
2018-07-06T11:44:41.408Z,3.80
2018-07-06T11:47:10.868Z,3.70
2018-07-06T11:49:39.935Z,3.90
2018-07-06T11:52:09.307Z,7.83
2018-07-06T11:54:38.632Z,4.47
2018-07-06T11:57:08.064Z,5.03
2018-07-06T11:59:37.411Z,5.17
2018-07-06T12:02:06.744Z,2.53
2018-07-06T12:04:36.122Z,4.43
2018-07-06T12:07:05.392Z,2.27
2018-07-06T12:09:34.729Z,2.20
2018-07-06T12:12:04.062Z,2.97
2018-07-06T12:14:33.164Z,2.20
2018-07-06T12:17:02.271Z,2.30
2018-07-06T12:19:31.584Z,2.00
2018-07-06T12:22:00.909Z,2.00
2018-07-06T12:24:30.247Z,2.50
2018-07-06T12:26:59.591Z,1.83
2018-07-06T12:29:28.916Z,1.83
2018-07-06T12:31:58.233Z,2.10
2018-07-06T12:34:27.563Z,2.70
2018-07-06T12:36:57.302Z,1.80
2018-07-06T12:39:26.604Z,1.80
2018-07-06T12:41:55.932Z,1.50
2018-07-06T12:44:25.252Z,2.08
2018-07-06T12:46:54.576Z,1.50
2018-07-06T12:49:23.899Z,2.40
2018-07-06T12:51:53.236Z,2.63
2018-07-06T12:54:22.556Z,1.75
2018-07-06T12:56:51.881Z,2.10
2018-07-06T12:59:21.199Z,2.90
2018-07-06T13:01:50.532Z,3.23
2018-07-06T13:04:19.870Z,1.77
2018-07-06T13:06:49.219Z,1.60
2018-07-06T13:09:18.536Z,1.57
2018-07-06T13:11:47.852Z,5.30
2018-07-06T13:14:17.180Z,1.63
2018-07-06T13:16:46.508Z,2.27
2018-07-06T13:19:15.820Z,1.40
2018-07-06T13:21:45.500Z,1.40
2018-07-06T13:24:14.900Z,1.30
2018-07-06T13:26:44.232Z,3.23
2018-07-06T13:29:13.539Z,2.97
2018-07-06T13:31:42.914Z,2.60
2018-07-06T13:34:12.256Z,1.90
2018-07-06T13:36:41.574Z,1.70
2018-07-06T13:39:10.962Z,1.87
2018-07-06T13:41:40.484Z,1.50
2018-07-06T13:44:09.744Z,2.00
2018-07-06T13:46:39.079Z,1.40
2018-07-06T13:49:08.381Z,2.05
2018-07-06T13:51:37.705Z,1.52
2018-07-06T13:54:07.410Z,1.70
2018-07-06T13:56:36.760Z,2.03
2018-07-06T13:59:06.199Z,1.60
2018-07-06T14:01:35.503Z,3.93
2018-07-06T14:04:04.902Z,1.62
2018-07-06T14:06:34.004Z,1.62
2018-07-06T14:09:03.171Z,1.15
2018-07-06T14:11:32.550Z,1.12
2018-07-06T14:14:02.275Z,2.98
2018-07-06T14:16:31.616Z,1.30
2018-07-06T14:19:00.967Z,1.40
2018-07-06T14:21:30.315Z,1.47
2018-07-06T14:23:59.419Z,2.87
2018-07-06T14:26:28.782Z,1.15
2018-07-06T14:28:58.152Z,1.52
2018-07-06T14:31:27.467Z,3.45
2018-07-06T14:33:56.807Z,1.52
2018-07-06T14:36:25.903Z,1.10
2018-07-06T14:38:55.067Z,2.02
2018-07-06T14:41:24.410Z,2.45
2018-07-06T14:43:53.502Z,1.17
2018-07-06T14:46:22.839Z,1.20
2018-07-06T14:48:52.199Z,1.55
2018-07-06T14:51:21.292Z,1.87
2018-07-06T14:53:50.366Z,1.05
2018-07-06T14:56:19.660Z,1.27
2018-07-06T14:58:49.028Z,1.30
2018-07-06T15:01:18.348Z,1.20
2018-07-06T15:03:47.673Z,1.52
2018-07-06T15:06:17.043Z,1.20
2018-07-06T15:08:46.747Z,1.20
2018-07-06T15:11:16.016Z,1.98
2018-07-06T15:13:45.323Z,2.60
2018-07-06T15:16:14.664Z,1.80
2018-07-06T15:18:43.999Z,2.17
2018-07-06T15:21:13.317Z,1.30
2018-07-06T15:23:42.646Z,1.42
2018-07-06T15:26:11.956Z,1.65
2018-07-06T15:28:41.277Z,2.58
2018-07-06T15:31:10.592Z,2.27
2018-07-06T15:33:39.923Z,1.27
2018-07-06T15:36:09.232Z,1.72
2018-07-06T15:38:38.568Z,2.67
2018-07-06T15:41:07.907Z,2.25
2018-07-06T15:43:37.007Z,1.42
2018-07-06T15:46:06.336Z,1.35
2018-07-06T15:48:35.683Z,1.30
2018-07-06T15:51:05.018Z,4.17
2018-07-06T15:53:34.343Z,1.50
2018-07-06T15:56:03.795Z,1.40
2018-07-06T15:58:33.145Z,1.50
2018-07-06T16:01:02.484Z,2.72
2018-07-06T16:03:31.801Z,1.35
2018-07-06T16:06:01.144Z,1.40
2018-07-06T16:08:30.460Z,1.30
2018-07-06T16:10:59.808Z,1.65
2018-07-06T16:13:29.019Z,1.67
2018-07-06T16:15:58.443Z,1.60
2018-07-06T16:18:27.764Z,2.27
2018-07-06T16:20:57.116Z,1.70
2018-07-06T16:23:26.203Z,3.40
2018-07-06T16:25:55.305Z,1.65
2018-07-06T16:28:24.640Z,2.62
2018-07-06T16:30:53.958Z,8.98
2018-07-06T16:33:23.291Z,2.33
2018-07-06T16:35:52.390Z,2.00
2018-07-06T16:38:21.780Z,3.10
2018-07-06T16:40:51.139Z,2.58
2018-07-06T16:43:20.447Z,2.27
2018-07-06T16:45:49.772Z,2.25
2018-07-06T16:48:19.088Z,2.37
2018-07-06T16:50:48.436Z,1.47
2018-07-06T16:53:17.760Z,1.60
2018-07-06T16:55:47.101Z,3.20
2018-07-06T16:58:16.264Z,1.50
2018-07-06T17:00:45.684Z,1.72
2018-07-06T17:03:15.184Z,1.70
2018-07-06T17:05:44.503Z,1.77
2018-07-06T17:08:13.568Z,1.60
2018-07-06T17:10:42.924Z,1.70
2018-07-06T17:13:12.264Z,1.90
2018-07-06T17:15:41.624Z,12.23
2018-07-06T17:18:10.939Z,2.07
2018-07-06T17:20:40.256Z,2.63
2018-07-06T17:23:37.603Z,1.97
2018-07-06T17:26:06.952Z,4.47
2018-07-06T17:29:11.072Z,4.50
2018-07-06T17:31:40.390Z,6.73
2018-07-06T17:34:09.692Z,4.13
2018-07-06T17:36:39.025Z,1.67
2018-07-06T17:39:08.356Z,4.03
2018-07-06T17:41:37.798Z,3.47
2018-07-06T17:44:07.131Z,2.50
2018-07-06T17:46:36.464Z,3.30
2018-07-06T17:49:05.824Z,3.13
2018-07-06T17:51:35.143Z,2.27
2018-07-06T17:54:04.508Z,3.67
2018-07-06T17:56:33.873Z,2.80
2018-07-06T17:59:03.323Z,5.70
2018-07-06T18:01:32.681Z,5.37
2018-07-06T18:04:02.036Z,2.33
2018-07-06T18:06:31.391Z,3.90
2018-07-06T18:09:00.745Z,3.10
2018-07-06T18:11:30.101Z,2.53
2018-07-06T18:13:59.468Z,2.67
2018-07-06T18:16:28.825Z,2.40
2018-07-06T18:18:58.227Z,3.13
2018-07-06T18:21:27.604Z,2.20
2018-07-06T18:23:56.971Z,2.10
2018-07-06T18:26:26.347Z,3.98
2018-07-06T18:28:55.701Z,2.67
2018-07-06T18:31:24.842Z,3.40
2018-07-06T18:33:54.199Z,2.50
2018-07-06T18:36:23.309Z,4.42
2018-07-06T18:38:52.666Z,2.63
2018-07-06T18:41:22.063Z,3.13
2018-07-06T18:43:51.541Z,3.17
2018-07-06T18:46:20.932Z,3.00
2018-07-06T18:48:50.311Z,3.37
2018-07-06T18:51:19.404Z,2.40
2018-07-06T18:53:48.527Z,2.73
2018-07-06T18:56:17.876Z,3.10
2018-07-06T18:58:47.220Z,3.30
2018-07-06T19:01:16.564Z,3.03
2018-07-06T19:03:45.960Z,2.80
2018-07-06T19:06:15.316Z,4.17
2018-07-06T19:08:44.725Z,3.73
2018-07-06T19:11:14.220Z,3.13
2018-07-06T19:13:43.583Z,4.03
2018-07-06T19:16:12.944Z,4.43
2018-07-06T19:18:42.420Z,5.27
2018-07-06T19:21:11.780Z,4.83
2018-07-06T19:23:41.143Z,6.53
2018-07-06T19:26:10.491Z,8.47
2018-07-06T19:28:39.848Z,4.13
2018-07-06T19:31:09.212Z,4.77
2018-07-06T19:33:38.577Z,3.67
2018-07-06T19:36:08.910Z,3.85
2018-07-06T19:38:38.269Z,7.07
2018-07-06T19:41:07.640Z,3.70
2018-07-06T19:43:37.009Z,4.20
2018-07-06T19:46:06.360Z,6.87
2018-07-06T19:48:35.762Z,3.40
2018-07-06T19:51:05.073Z,6.93
2018-07-06T19:53:34.460Z,3.97
2018-07-06T19:56:03.553Z,3.63
2018-07-06T19:58:32.654Z,3.97
2018-07-06T20:01:01.967Z,3.83
2018-07-06T20:03:31.300Z,3.93
2018-07-06T20:06:00.636Z,6.27
2018-07-06T20:08:29.971Z,4.60
2018-07-06T20:10:59.288Z,4.57
2018-07-06T20:13:28.616Z,4.73
2018-07-06T20:15:57.931Z,4.37
2018-07-06T20:18:27.284Z,4.00
2018-07-06T20:20:56.623Z,3.10
2018-07-06T20:23:25.948Z,4.20
2018-07-06T20:25:55.269Z,7.10
2018-07-06T20:28:24.604Z,3.30
2018-07-06T20:30:53.928Z,3.70
2018-07-06T20:33:23.259Z,3.07
2018-07-06T20:35:52.344Z,3.80
2018-07-06T20:38:21.439Z,2.72
2018-07-06T20:40:50.519Z,3.33
2018-07-06T20:43:19.878Z,3.23
2018-07-06T20:45:49.176Z,4.80
2018-07-06T20:48:18.503Z,3.47
2018-07-06T20:50:47.839Z,3.53
2018-07-06T20:53:16.931Z,4.77
2018-07-06T20:55:46.298Z,3.80
2018-07-06T20:58:15.649Z,5.83
2018-07-06T21:00:44.981Z,3.37
2018-07-06T21:03:14.331Z,3.07
2018-07-06T21:05:43.706Z,4.57
2018-07-06T21:08:13.173Z,4.30
2018-07-06T21:10:42.285Z,4.10
2018-07-06T21:13:11.355Z,3.67
2018-07-06T21:15:40.720Z,5.07
2018-07-06T21:18:10.079Z,3.20
2018-07-06T21:20:39.448Z,5.87
2018-07-06T21:23:08.539Z,3.57
2018-07-06T21:25:37.645Z,6.63
2018-07-06T21:28:07.052Z,5.37
2018-07-06T21:30:36.421Z,4.23
2018-07-06T21:33:06.005Z,3.43
2018-07-06T21:35:35.429Z,3.37
2018-07-06T21:38:04.801Z,4.70
2018-07-06T21:40:34.167Z,4.67
2018-07-06T21:43:03.548Z,4.53
2018-07-06T21:45:32.648Z,3.70
2018-07-06T21:48:02.019Z,10.20
2018-07-06T21:50:31.380Z,3.50
2018-07-06T21:53:00.744Z,3.87
2018-07-06T21:55:29.900Z,5.03
2018-07-06T21:57:59.228Z,7.83
2018-07-06T22:00:40.687Z,5.17
2018-07-06T22:03:11.812Z,4.13
2018-07-06T22:05:42.114Z,5.57
2018-07-06T22:08:11.477Z,4.73
2018-07-06T22:10:40.839Z,3.43
2018-07-06T22:13:10.191Z,6.63
2018-07-06T22:15:44.246Z,4.03
2018-07-06T22:18:15.260Z,3.50
2018-07-06T22:20:46.416Z,4.97
2018-07-06T22:23:16.209Z,3.50
2018-07-06T22:25:45.307Z,4.27
2018-07-06T22:28:14.655Z,3.87
2018-07-06T22:30:43.997Z,5.07
2018-07-06T22:33:13.110Z,7.80
2018-07-06T22:35:42.472Z,3.43
2018-07-06T22:38:11.808Z,4.33
2018-07-06T22:40:41.162Z,3.70
2018-07-06T22:43:10.520Z,4.80
2018-07-06T22:45:39.888Z,5.22
2018-07-06T22:48:08.996Z,8.07
2018-07-06T22:50:38.344Z,3.83
2018-07-06T22:53:07.715Z,3.90
2018-07-06T22:55:37.056Z,4.70
2018-07-06T22:58:06.595Z,5.27
2018-07-06T23:00:35.928Z,4.20
2018-07-06T23:03:06.042Z,4.50
2018-07-06T23:05:35.427Z,8.37
2018-07-06T23:08:04.717Z,4.50
2018-07-06T23:10:33.787Z,4.40
2018-07-06T23:13:03.120Z,3.47
2018-07-06T23:15:32.194Z,2.90
2018-07-06T23:18:01.569Z,3.23
2018-07-06T23:20:30.883Z,6.60
2018-07-06T23:23:07.717Z,3.67
2018-07-06T23:25:38.324Z,3.33
2018-07-06T23:28:08.687Z,3.70
2018-07-06T23:30:38.015Z,3.77
2018-07-06T23:33:08.036Z,5.90
2018-07-06T23:35:37.371Z,5.57
2018-07-06T23:38:06.746Z,4.57
2018-07-06T23:40:36.076Z,6.43
2018-07-06T23:43:05.403Z,5.10
2018-07-06T23:45:34.721Z,4.63
2018-07-06T23:48:04.072Z,4.57
2018-07-06T23:50:33.142Z,3.97
2018-07-06T23:53:02.485Z,5.60
2018-07-06T23:55:31.817Z,5.70
2018-07-06T23:58:01.151Z,5.73
